Black Forest, Colorado
Current Conditions -  °F | °C
As of 12:58 AM on Friday 19 Dec 2014 (Local Time) from KAFF Reporting Station
Clear Clear  
Wind Chill: 13°   Ceiling: Unl
Heat Index: 21°   Visibility: 10mi
Dew Point: 17°   Wind: 6mph
Humidity: 87%   Direction: 350°N
Pressure: 30.07"   Gusts: NA
Location:  39.0424°N, 104.69°W
Report Text: KAFF 190758Z AUTO 35005KT 10SM CLR M06/M08 A3007 RMK AO2 SLP203 T10621081
Loading
Personal Weather Stations






























Interactive Weather Map New forecast layout! Learn more

10-Day Weather Forecast

Advertisements
Track Severe Weather on mobile